Time;durP1;ratioP1;P1;durP2;ratioP2;P2;SDS_P1;SDS_P2;PMS_P1;PMS_P2;Temp;Humidity;BMP_temperature;BMP_pressure;BME280_temperature;BME280_humidity;BME280_pressure;Samples;Min_cycle;Max_cycle;Signal;HPM_P1;HPM_P2
2023/07/07 00:02:22;;;;;;;4.30;3.90;;;24.00;59.60;;;;;;5029268;28;20482;-69
2023/07/07 00:04:51;;;;;;;3.90;3.60;;;24.00;59.50;;;;;;5030869;28;20419;-69
2023/07/07 00:07:17;;;;;;;4.20;3.60;;;23.90;59.40;;;;;;5030912;28;20779;-69
2023/07/07 00:09:45;;;;;;;4.00;3.70;;;23.90;59.50;;;;;;4996876;28;20446;-69
2023/07/07 00:12:16;;;;;;;4.10;3.70;;;23.90;59.40;;;;;;5030586;28;20966;-69
2023/07/07 00:14:42;;;;;;;4.10;3.80;;;23.90;59.50;;;;;;5030690;28;20961;-69
2023/07/07 00:17:16;;;;;;;3.97;3.57;;;23.90;59.50;;;;;;5012907;28;20501;-69
2023/07/07 00:19:44;;;;;;;4.33;4.03;;;23.80;59.40;;;;;;5012877;28;20412;-70
2023/07/07 00:22:13;;;;;;;3.73;3.43;;;23.90;59.50;;;;;;5030510;28;20423;-69
2023/07/07 00:24:41;;;;;;;3.80;3.50;;;23.80;59.40;;;;;;5030507;28;20557;-69
2023/07/07 00:27:12;;;;;;;4.17;3.83;;;23.80;59.50;;;;;;5030468;28;20952;-69
2023/07/07 00:29:37;;;;;;;4.57;3.80;;;23.80;59.40;;;;;;5012656;28;20404;-69
2023/07/07 00:32:06;;;;;;;3.90;3.67;;;23.80;59.40;;;;;;5012743;28;20504;-69
2023/07/07 00:34:35;;;;;;;4.30;3.90;;;23.80;59.40;;;;;;5028703;28;20467;-69
2023/07/07 00:37:03;;;;;;;4.23;3.83;;;23.80;59.40;;;;;;5012644;28;20459;-69
2023/07/07 00:39:29;;;;;;;4.23;3.93;;;23.80;59.50;;;;;;4996114;28;20184;-69
2023/07/07 00:41:58;;;;;;;4.13;3.73;;;23.70;59.40;;;;;;5028667;28;20938;-69
2023/07/07 00:44:50;;;;;;;4.00;3.80;;;23.70;59.40;;;;;;5011969;28;20431;-69
2023/07/07 00:47:17;;;;;;;4.63;4.10;;;23.70;59.40;;;;;;5028529;28;20486;-69
2023/07/07 00:49:46;;;;;;;4.23;3.87;;;23.70;59.40;;;;;;5009304;28;20826;-69
2023/07/07 00:52:12;;;;;;;4.37;3.60;;;23.70;59.40;;;;;;5012328;28;20439;-69
2023/07/07 00:54:38;;;;;;;3.93;3.63;;;23.60;59.40;;;;;;5012508;28;20933;-69
2023/07/07 00:57:07;;;;;;;4.87;4.10;;;23.60;59.40;;;;;;5012777;28;20785;-69
2023/07/07 00:59:38;;;;;;;4.23;4.00;;;23.60;59.40;;;;;;5009178;28;20456;-69
2023/07/07 01:02:15;;;;;;;4.10;3.80;;;23.60;59.40;;;;;;5008986;28;20432;-69
2023/07/07 01:04:48;;;;;;;4.20;3.90;;;23.60;59.40;;;;;;5018491;28;20508;-69
2023/07/07 01:07:22;;;;;;;3.93;3.63;;;23.60;59.40;;;;;;5012245;28;20436;-69
2023/07/07 01:09:48;;;;;;;3.90;3.60;;;23.50;59.40;;;;;;5012200;28;20415;-69
2023/07/07 01:12:15;;;;;;;4.40;4.10;;;23.50;59.40;;;;;;5029813;28;20774;-69
2023/07/07 01:14:45;;;;;;;5.00;3.57;;;23.50;59.40;;;;;;5028966;28;20493;-69
2023/07/07 01:17:34;;;;;;;3.70;3.40;;;23.50;59.40;;;;;;5012513;28;20545;-69
2023/07/07 01:20:12;;;;;;;4.00;3.73;;;23.50;59.40;;;;;;5012273;28;20459;-69
2023/07/07 01:23:11;;;;;;;4.73;3.63;;;23.40;59.40;;;;;;5029672;28;20452;-69
2023/07/07 01:25:57;;;;;;;5.23;3.53;;;23.40;59.40;;;;;;4985166;28;20541;-69
2023/07/07 01:28:53;;;;;;;4.13;3.90;;;23.40;59.40;;;;;;5029611;28;20916;-69
2023/07/07 01:31:40;;;;;;;4.10;3.80;;;23.40;59.40;;;;;;5012514;28;20439;-69
2023/07/07 01:34:10;;;;;;;4.50;4.20;;;23.40;59.40;;;;;;5028559;28;20549;-70
2023/07/07 01:36:39;;;;;;;3.83;3.43;;;23.40;59.40;;;;;;5028646;28;20813;-69
2023/07/07 01:39:05;;;;;;;4.23;3.93;;;23.30;59.40;;;;;;5012157;28;20909;-69
2023/07/07 01:41:59;;;;;;;4.50;4.30;;;23.30;59.90;;;;;;5028211;28;20512;-69
2023/07/07 01:44:50;;;;;;;4.40;4.00;;;23.30;59.40;;;;;;5011769;28;20434;-69
2023/07/07 01:47:42;;;;;;;5.87;4.30;;;23.30;59.40;;;;;;5011987;28;20500;-69
2023/07/07 01:50:22;;;;;;;5.93;4.50;;;23.30;59.40;;;;;;5013795;28;20442;-70
2023/07/07 01:52:57;;;;;;;4.63;4.23;;;23.20;59.30;;;;;;5028057;28;20484;-69
2023/07/07 01:55:24;;;;;;;4.80;4.40;;;23.20;59.90;;;;;;5029319;28;21005;-69
2023/07/07 01:58:07;;;;;;;4.30;3.90;;;23.20;59.40;;;;;;5032195;28;20443;-69
2023/07/07 02:00:34;;;;;;;4.37;4.07;;;23.20;59.40;;;;;;5031953;28;21042;-69
2023/07/07 02:03:07;;;;;;;4.87;3.83;;;23.20;59.30;;;;;;4999022;28;20836;-70
2023/07/07 02:05:34;;;;;;;3.90;3.60;;;23.20;59.30;;;;;;5031979;28;20426;-69
2023/07/07 02:08:00;;;;;;;4.13;3.83;;;23.20;59.30;;;;;;5015642;28;20991;-69
2023/07/07 02:10:26;;;;;;;4.00;3.70;;;23.20;59.40;;;;;;5015446;28;20500;-69
2023/07/07 02:12:55;;;;;;;4.60;4.30;;;23.10;59.30;;;;;;5031763;28;20463;-69
2023/07/07 02:15:20;;;;;;;4.37;3.97;;;23.10;59.30;;;;;;4995697;28;20971;-70
2023/07/07 02:17:48;;;;;;;4.60;4.10;;;23.10;59.30;;;;;;4995579;28;20833;-69
2023/07/07 02:20:16;;;;;;;4.30;4.00;;;23.10;59.30;;;;;;4995726;28;20422;-69
2023/07/07 02:22:44;;;;;;;4.60;4.20;;;23.10;59.30;;;;;;5028640;28;20475;-70
2023/07/07 02:25:13;;;;;;;4.80;4.40;;;23.10;59.30;;;;;;5013188;28;20458;-69
2023/07/07 02:27:39;;;;;;;4.20;3.87;;;23.10;59.30;;;;;;5015933;28;20446;-70
2023/07/07 02:30:05;;;;;;;4.10;3.80;;;23.00;59.30;;;;;;5032562;28;20785;-69
2023/07/07 02:32:34;;;;;;;4.17;3.77;;;23.00;59.30;;;;;;5032611;28;20459;-69
2023/07/07 02:35:02;;;;;;;4.77;4.27;;;23.00;59.30;;;;;;5031774;28;20966;-69
2023/07/07 02:37:32;;;;;;;3.87;3.63;;;23.00;59.30;;;;;;5014758;28;20447;-69
2023/07/07 02:39:58;;;;;;;4.47;4.17;;;23.00;59.30;;;;;;5032592;28;20423;-69
2023/07/07 02:42:26;;;;;;;6.93;4.20;;;23.00;59.30;;;;;;5031252;28;20534;-70
2023/07/07 02:44:52;;;;;;;4.10;3.80;;;23.00;59.40;;;;;;5031246;28;20870;-69
2023/07/07 02:47:18;;;;;;;4.03;3.73;;;22.90;59.20;;;;;;5031114;28;20423;-69
2023/07/07 02:49:47;;;;;;;4.50;3.80;;;22.90;59.20;;;;;;5014830;28;20427;-69
2023/07/07 02:52:13;;;;;;;4.77;4.37;;;22.90;59.30;;;;;;4998545;28;20419;-69
2023/07/07 02:54:39;;;;;;;4.80;4.40;;;22.90;59.30;;;;;;5014397;28;20841;-69
2023/07/07 02:57:06;;;;;;;3.90;3.63;;;22.90;59.30;;;;;;5014296;28;20483;-69
2023/07/07 02:59:32;;;;;;;4.53;4.10;;;22.90;59.40;;;;;;4994579;28;20429;-70
2023/07/07 03:01:58;;;;;;;4.23;3.93;;;22.80;59.30;;;;;;5030627;28;20818;-69
2023/07/07 03:04:24;;;;;;;5.23;4.80;;;22.80;59.90;;;;;;5030647;28;20439;-69
2023/07/07 03:06:51;;;;;;;5.43;4.93;;;22.80;59.40;;;;;;5030540;28;20948;-70
2023/07/07 03:09:17;;;;;;;5.67;3.87;;;22.80;59.40;;;;;;5014194;28;20437;-69
2023/07/07 03:11:48;;;;;;;4.43;3.90;;;22.80;59.30;;;;;;5014218;28;20976;-69
2023/07/07 03:14:19;;;;;;;4.23;3.93;;;22.80;59.40;;;;;;5030357;28;20470;-70
2023/07/07 03:16:47;;;;;;;4.40;4.10;;;22.80;59.40;;;;;;5030737;28;20517;-69
2023/07/07 03:19:17;;;;;;;4.47;4.07;;;22.70;59.40;;;;;;5030740;28;20408;-69
2023/07/07 03:22:02;;;;;;;4.93;4.43;;;22.70;59.30;;;;;;5016562;28;21058;-70
2023/07/07 03:24:54;;;;;;;4.30;3.90;;;22.70;59.40;;;;;;5029843;28;20510;-69
2023/07/07 03:27:34;;;;;;;6.03;4.07;;;22.60;59.30;;;;;;5012775;28;20443;-69
2023/07/07 03:30:03;;;;;;;4.60;4.30;;;22.60;59.40;;;;;;5012122;28;20518;-69
2023/07/07 03:32:43;;;;;;;4.70;4.30;;;22.60;59.40;;;;;;5028323;28;20435;-69
2023/07/07 03:35:10;;;;;;;5.90;4.53;;;22.60;59.30;;;;;;5029302;28;20974;-69
2023/07/07 03:37:43;;;;;;;5.07;3.87;;;22.60;59.40;;;;;;5013196;28;20522;-69
2023/07/07 03:40:09;;;;;;;4.23;3.93;;;22.60;59.40;;;;;;5013001;28;20419;-69
2023/07/07 03:42:38;;;;;;;4.47;4.07;;;22.60;59.40;;;;;;5029745;28;20404;-69
2023/07/07 03:45:10;;;;;;;4.73;4.27;;;22.60;59.40;;;;;;5012944;28;20466;-69
2023/07/07 03:47:36;;;;;;;4.40;4.03;;;22.50;59.30;;;;;;5012436;28;20446;-69
2023/07/07 03:50:04;;;;;;;4.70;4.30;;;22.50;59.90;;;;;;5029296;28;20416;-69
2023/07/07 03:52:34;;;;;;;4.43;4.03;;;22.50;59.30;;;;;;5028898;28;20424;-70
2023/07/07 03:55:02;;;;;;;4.27;3.87;;;22.50;59.30;;;;;;5029689;28;20416;-69
2023/07/07 03:57:31;;;;;;;4.03;3.63;;;22.50;59.30;;;;;;5012945;28;20791;-69
2023/07/07 03:59:59;;;;;;;3.97;3.53;;;22.50;59.40;;;;;;5030136;28;20967;-69
2023/07/07 04:02:27;;;;;;;3.83;3.53;;;22.40;59.90;;;;;;5009820;28;20830;-69
2023/07/07 04:04:55;;;;;;;5.80;4.10;;;22.40;59.40;;;;;;5028587;28;20486;-69
2023/07/07 04:07:21;;;;;;;4.70;4.10;;;22.40;59.40;;;;;;5030534;28;20696;-69
2023/07/07 04:09:51;;;;;;;5.80;4.03;;;22.40;59.40;;;;;;5049869;23;20497;-70
2023/07/07 04:12:19;;;;;;;4.50;4.20;;;22.40;59.30;;;;;;5054602;28;20504;-70
2023/07/07 04:14:45;;;;;;;4.13;3.83;;;22.40;59.30;;;;;;5070211;28;20469;-71
2023/07/07 04:17:11;;;;;;;7.33;3.90;;;22.40;59.40;;;;;;5069586;28;20584;-71
2023/07/07 04:19:37;;;;;;;4.70;4.30;;;22.30;59.30;;;;;;5053881;28;20410;-71
2023/07/07 04:22:03;;;;;;;5.10;4.20;;;22.30;59.40;;;;;;5086685;28;20434;-71
2023/07/07 04:24:32;;;;;;;3.93;3.63;;;22.30;59.40;;;;;;5053332;28;20538;-71
2023/07/07 04:27:00;;;;;;;4.33;3.97;;;22.30;59.30;;;;;;5035661;28;20796;-71
2023/07/07 04:29:29;;;;;;;4.90;4.50;;;22.30;59.40;;;;;;5070124;28;20398;-71
2023/07/07 04:31:59;;;;;;;4.53;3.80;;;22.30;59.40;;;;;;5068994;28;20396;-71
2023/07/07 04:34:27;;;;;;;4.43;4.03;;;22.30;59.40;;;;;;5069161;28;20441;-71
2023/07/07 04:36:53;;;;;;;4.60;4.17;;;22.30;59.50;;;;;;5069509;28;20977;-70
2023/07/07 04:39:19;;;;;;;4.37;3.87;;;22.20;59.40;;;;;;5068949;28;20449;-73
2023/07/07 04:41:48;;;;;;;4.17;3.87;;;22.20;59.50;;;;;;5052537;28;20459;-69
2023/07/07 04:44:17;;;;;;;7.47;4.00;;;22.20;59.40;;;;;;5069716;28;20469;-70
2023/07/07 04:46:45;;;;;;;5.53;3.90;;;22.20;59.50;;;;;;5069757;28;20784;-70
2023/07/07 04:49:15;;;;;;;4.43;4.03;;;22.20;59.50;;;;;;5037285;28;20455;-71
2023/07/07 04:51:42;;;;;;;5.17;3.80;;;22.20;59.60;;;;;;5069665;28;20445;-71
2023/07/07 04:54:12;;;;;;;4.90;3.87;;;22.20;59.60;;;;;;5052743;28;20905;-71
2023/07/07 04:56:44;;;;;;;4.40;3.70;;;22.10;59.60;;;;;;5070748;28;20436;-72
2023/07/07 04:59:11;;;;;;;4.60;4.20;;;22.10;59.70;;;;;;5069666;28;20438;-72
2023/07/07 05:01:37;;;;;;;4.20;3.90;;;22.10;59.70;;;;;;5069278;28;20505;-71
2023/07/07 05:04:07;;;;;;;4.73;3.80;;;22.10;59.80;;;;;;5052839;28;20437;-72
2023/07/07 05:06:37;;;;;;;4.73;4.10;;;22.10;59.80;;;;;;5069280;28;20486;-72
2023/07/07 05:09:10;;;;;;;4.70;4.30;;;22.10;60.00;;;;;;5069352;28;20769;-72
2023/07/07 05:11:38;;;;;;;4.00;3.70;;;22.10;60.10;;;;;;5069250;28;20421;-72
2023/07/07 05:14:04;;;;;;;4.60;4.10;;;22.10;60.20;;;;;;5069001;28;20597;-72
2023/07/07 05:16:36;;;;;;;4.50;4.20;;;22.10;60.30;;;;;;5052377;28;20678;-71
2023/07/07 05:19:02;;;;;;;5.70;4.20;;;22.10;60.40;;;;;;5069419;28;20464;-71
2023/07/07 05:21:28;;;;;;;4.23;3.80;;;22.10;60.40;;;;;;5069306;28;20429;-72
2023/07/07 05:23:57;;;;;;;5.60;3.90;;;22.00;60.50;;;;;;5086219;28;20417;-72
2023/07/07 05:26:28;;;;;;;5.43;3.50;;;22.00;60.60;;;;;;5068866;28;20416;-72
2023/07/07 05:29:02;;;;;;;5.27;4.10;;;22.00;60.70;;;;;;5070186;28;20939;-72
2023/07/07 05:31:31;;;;;;;5.57;3.37;;;22.00;60.80;;;;;;5040716;28;20518;-72
2023/07/07 05:33:57;;;;;;;4.00;3.70;;;22.00;60.90;;;;;;5072983;28;20464;-71
2023/07/07 05:36:23;;;;;;;4.53;4.13;;;22.00;61.00;;;;;;5073137;28;21119;-72
2023/07/07 05:38:50;;;;;;;6.40;4.20;;;22.00;60.90;;;;;;5090679;28;20412;-72
2023/07/07 05:41:16;;;;;;;5.13;3.73;;;22.00;61.10;;;;;;5056077;28;20456;-72
2023/07/07 05:43:48;;;;;;;4.33;4.03;;;21.90;64.60;;;;;;5071500;28;20440;-71
2023/07/07 05:46:15;;;;;;;4.37;3.97;;;22.00;64.20;;;;;;5055517;28;20428;-72
2023/07/07 05:48:44;;;;;;;3.93;3.63;;;22.00;64.20;;;;;;5073926;28;20430;-72
2023/07/07 05:51:17;;;;;;;4.80;4.00;;;21.90;63.90;;;;;;5071499;28;21246;-73
2023/07/07 05:53:47;;;;;;;8.40;4.33;;;22.00;64.20;;;;;;5055351;28;20476;-72
2023/07/07 05:56:33;;;;;;;6.53;4.47;;;22.00;64.10;;;;;;5071838;28;20743;-75
2023/07/07 05:59:04;;;;;;;4.53;4.00;;;21.80;64.00;;;;;;5072057;28;20540;-70
2023/07/07 06:01:30;;;;;;;4.30;3.90;;;21.90;61.60;;;;;;5055450;28;20780;-70
2023/07/07 06:03:58;;;;;;;5.03;4.53;;;22.00;61.70;;;;;;5073383;28;20425;-69
2023/07/07 06:06:27;;;;;;;4.47;4.07;;;22.00;61.70;;;;;;5073048;28;20398;-69
2023/07/07 06:08:55;;;;;;;4.67;4.17;;;21.90;61.40;;;;;;5055482;28;20425;-69
2023/07/07 06:11:32;;;;;;;4.37;3.97;;;21.90;61.60;;;;;;5039641;28;20833;-69
2023/07/07 06:13:58;;;;;;;4.57;4.17;;;21.90;61.50;;;;;;5071473;28;20448;-69
2023/07/07 06:16:24;;;;;;;4.97;4.50;;;21.90;61.50;;;;;;5073028;28;20484;-69
2023/07/07 06:18:50;;;;;;;4.53;3.63;;;21.90;61.50;;;;;;5069353;28;20953;-70
2023/07/07 06:21:18;;;;;;;4.40;4.10;;;21.90;61.50;;;;;;5070990;28;20397;-69
2023/07/07 06:23:44;;;;;;;5.43;4.90;;;21.90;61.70;;;;;;5054767;28;20805;-69
2023/07/07 06:26:10;;;;;;;5.40;3.70;;;21.90;61.60;;;;;;5054571;28;20409;-69
2023/07/07 06:28:36;;;;;;;5.00;4.10;;;21.90;62.30;;;;;;5055005;28;20449;-70
2023/07/07 06:31:05;;;;;;;4.07;3.77;;;21.90;61.40;;;;;;5072774;28;20253;-69
2023/07/07 06:33:33;;;;;;;4.20;3.80;;;21.90;61.40;;;;;;5037187;28;20482;-70
2023/07/07 06:36:04;;;;;;;4.73;4.10;;;21.90;61.40;;;;;;5055383;28;20942;-69
2023/07/07 06:38:30;;;;;;;4.73;3.90;;;21.90;61.30;;;;;;5071322;28;20531;-69
2023/07/07 06:40:56;;;;;;;4.40;4.00;;;21.90;61.20;;;;;;5071659;28;20531;-69
2023/07/07 06:43:22;;;;;;;4.43;4.10;;;21.90;61.20;;;;;;5071050;28;21664;-69
2023/07/07 06:45:55;;;;;;;4.37;3.97;;;21.90;61.10;;;;;;5072628;28;20408;-69
2023/07/07 06:48:21;;;;;;;3.80;3.50;;;21.90;61.90;;;;;;5072095;28;20863;-69
2023/07/07 06:50:50;;;;;;;4.87;4.20;;;21.90;61.10;;;;;;5054380;28;20452;-69
2023/07/07 06:53:18;;;;;;;4.43;4.13;;;21.90;61.90;;;;;;5054736;28;20469;-69
2023/07/07 06:55:44;;;;;;;4.27;3.97;;;21.90;63.70;;;;;;5070826;28;20425;-69
2023/07/07 06:58:12;;;;;;;7.60;4.20;;;22.00;63.70;;;;;;5037692;28;20275;-69
2023/07/07 07:00:40;;;;;;;4.40;4.10;;;22.00;63.70;;;;;;5070701;28;20413;-69
2023/07/07 07:03:09;;;;;;;4.80;3.70;;;22.00;63.50;;;;;;5072215;28;20779;-69
2023/07/07 07:05:35;;;;;;;5.37;4.37;;;22.00;63.50;;;;;;5054080;28;20865;-70
2023/07/07 07:08:08;;;;;;;3.97;3.67;;;22.00;63.60;;;;;;5070596;28;20445;-70
2023/07/07 07:10:37;;;;;;;4.23;3.83;;;21.90;63.40;;;;;;5072024;28;20841;-70
2023/07/07 07:13:03;;;;;;;7.53;4.70;;;22.00;63.40;;;;;;5037166;28;20897;-70
2023/07/07 07:15:31;;;;;;;4.37;4.07;;;22.00;63.40;;;;;;5054014;28;20413;-70
2023/07/07 07:17:59;;;;;;;3.80;3.50;;;22.00;63.20;;;;;;5053906;28;20540;-69
2023/07/07 07:20:25;;;;;;;4.60;3.40;;;22.00;63.10;;;;;;5070459;28;20416;-70
2023/07/07 07:22:51;;;;;;;4.63;4.17;;;22.00;62.90;;;;;;5053855;28;20750;-70
2023/07/07 07:25:22;;;;;;;5.13;4.63;;;22.10;63.00;;;;;;5070435;28;20406;-70
2023/07/07 07:27:48;;;;;;;4.63;4.27;;;22.00;62.90;;;;;;5053702;28;20819;-70
2023/07/07 07:30:16;;;;;;;4.87;4.50;;;22.10;62.90;;;;;;5070232;28;20470;-70
2023/07/07 07:32:42;;;;;;;4.07;3.67;;;22.00;62.50;;;;;;5053758;28;20211;-70
2023/07/07 07:35:10;;;;;;;4.10;3.73;;;22.10;62.70;;;;;;5070147;28;20878;-70
2023/07/07 07:37:38;;;;;;;3.93;3.67;;;22.10;62.30;;;;;;5070121;28;20425;-70
2023/07/07 07:40:07;;;;;;;4.53;4.13;;;22.20;62.50;;;;;;5071270;28;20949;-70
2023/07/07 07:42:34;;;;;;;4.00;3.70;;;22.20;62.30;;;;;;5037122;28;20433;-71
2023/07/07 07:45:02;;;;;;;4.17;3.80;;;22.10;61.90;;;;;;5070229;28;20763;-71
2023/07/07 07:47:28;;;;;;;3.90;3.70;;;22.10;61.90;;;;;;5053482;28;20442;-70
2023/07/07 07:49:54;;;;;;;4.23;3.93;;;22.20;61.90;;;;;;5053550;28;20505;-70
2023/07/07 07:52:23;;;;;;;3.90;3.60;;;22.20;61.70;;;;;;5052964;28;20501;-71
2023/07/07 07:54:50;;;;;;;3.90;3.60;;;22.20;61.70;;;;;;5069502;28;20465;-70
2023/07/07 07:57:21;;;;;;;3.93;3.63;;;22.20;61.70;;;;;;5070947;28;20937;-70
2023/07/07 07:59:49;;;;;;;4.47;4.07;;;22.30;61.70;;;;;;5036706;28;20418;-70
2023/07/07 08:02:15;;;;;;;4.07;3.77;;;22.20;61.30;;;;;;5070917;28;20390;-70
2023/07/07 08:04:42;;;;;;;4.60;4.30;;;22.30;61.30;;;;;;5071147;28;20793;-70
2023/07/07 08:07:11;;;;;;;4.23;4.03;;;22.30;61.30;;;;;;5053060;28;20809;-70
2023/07/07 08:09:37;;;;;;;3.80;3.50;;;22.40;61.30;;;;;;5052947;28;20425;-70
2023/07/07 08:12:03;;;;;;;4.17;3.87;;;22.40;61.10;;;;;;5053240;28;20502;-71
2023/07/07 08:14:32;;;;;;;4.27;3.87;;;22.40;61.10;;;;;;5069510;28;20206;-70
2023/07/07 08:17:05;;;;;;;4.73;4.43;;;22.50;61.10;;;;;;5071163;28;20451;-70
2023/07/07 08:19:35;;;;;;;4.20;3.90;;;22.50;61.10;;;;;;5070705;28;20445;-70
2023/07/07 08:22:07;;;;;;;4.10;3.80;;;22.50;61.90;;;;;;5052808;28;20470;-71
2023/07/07 08:24:39;;;;;;;4.90;4.50;;;22.60;61.20;;;;;;5069283;28;20406;-71
2023/07/07 08:27:07;;;;;;;4.60;4.30;;;22.50;61.00;;;;;;5053020;28;20468;-71
2023/07/07 08:29:34;;;;;;;4.30;4.00;;;22.60;61.10;;;;;;5070394;28;20445;-71
2023/07/07 08:32:00;;;;;;;4.00;3.43;;;22.60;61.10;;;;;;5053015;28;20946;-70
2023/07/07 08:34:30;;;;;;;4.30;4.00;;;22.70;61.10;;;;;;5068783;28;20469;-71
2023/07/07 08:36:59;;;;;;;4.40;4.10;;;22.60;60.90;;;;;;5070432;28;20480;-70
2023/07/07 08:39:28;;;;;;;3.70;3.50;;;22.70;60.80;;;;;;5069186;28;20394;-71
2023/07/07 08:41:59;;;;;;;4.37;3.97;;;22.70;60.70;;;;;;5035946;28;20799;-71
2023/07/07 08:44:27;;;;;;;4.70;4.30;;;22.80;60.90;;;;;;5052290;28;20517;-70
2023/07/07 08:47:10;;;;;;;4.40;4.10;;;22.90;60.70;;;;;;5068906;28;20456;-71
2023/07/07 08:49:42;;;;;;;3.50;3.30;;;22.90;60.80;;;;;;5070311;28;20844;-70
2023/07/07 08:52:32;;;;;;;5.03;3.60;;;22.80;60.40;;;;;;5068527;28;20477;-70
2023/07/07 08:55:36;;;;;;;3.97;3.67;;;22.90;60.70;;;;;;5069113;28;20406;-70
2023/07/07 08:58:23;;;;;;;4.60;4.20;;;22.90;60.40;;;;;;5052557;28;20486;-71
2023/07/07 09:01:08;;;;;;;3.87;3.60;;;23.00;60.40;;;;;;5070884;28;20393;-70
2023/07/07 09:03:53;;;;;;;4.00;3.70;;;23.00;60.20;;;;;;5068524;28;20802;-70
2023/07/07 09:06:36;;;;;;;4.50;4.10;;;23.00;60.10;;;;;;5068763;28;20394;-70
2023/07/07 09:09:32;;;;;;;4.40;4.10;;;23.10;60.20;;;;;;5052359;28;20433;-70
2023/07/07 09:12:37;;;;;;;4.90;4.53;;;23.20;60.00;;;;;;5051739;28;20894;-71
2023/07/07 09:15:20;;;;;;;3.93;3.73;;;23.10;60.00;;;;;;5069974;28;20952;-70
2023/07/07 09:17:56;;;;;;;4.07;3.77;;;23.20;59.90;;;;;;5052138;28;20441;-70
2023/07/07 09:20:28;;;;;;;4.43;4.13;;;23.30;59.70;;;;;;5068515;28;20432;-71
2023/07/07 09:23:23;;;;;;;3.93;3.73;;;23.30;59.60;;;;;;5051941;28;20422;-70
2023/07/07 09:26:08;;;;;;;3.50;3.30;;;23.30;59.40;;;;;;5048493;28;20425;-71
2023/07/07 09:28:42;;;;;;;12.53;4.27;;;23.40;59.30;;;;;;5051932;28;20449;-71
2023/07/07 09:31:29;;;;;;;3.73;3.53;;;23.40;59.40;;;;;;5069823;28;20471;-71
2023/07/07 09:33:59;;;;;;;4.10;3.80;;;23.50;59.50;;;;;;5068252;28;20476;-71
2023/07/07 09:36:38;;;;;;;3.73;3.53;;;23.50;59.50;;;;;;5069486;28;20394;-72
2023/07/07 09:39:15;;;;;;;4.07;3.77;;;23.50;59.50;;;;;;5068303;28;20476;-72
2023/07/07 09:41:53;;;;;;;3.97;3.70;;;23.60;59.30;;;;;;5069794;28;20792;-71
2023/07/07 09:44:38;;;;;;;4.10;3.90;;;23.60;59.30;;;;;;5051784;28;20499;-72
2023/07/07 09:47:12;;;;;;;4.10;3.80;;;23.70;59.30;;;;;;5051567;28;20540;-72
2023/07/07 09:49:42;;;;;;;3.83;3.60;;;23.70;59.00;;;;;;5068267;28;20408;-72
2023/07/07 09:52:36;;;;;;;4.47;4.17;;;23.70;59.00;;;;;;5035220;28;20867;-71
2023/07/07 09:55:10;;;;;;;4.40;4.20;;;23.80;59.10;;;;;;5067682;28;20445;-72
2023/07/07 09:57:44;;;;;;;4.00;3.77;;;23.80;58.90;;;;;;5069456;28;20461;-72
2023/07/07 10:00:18;;;;;;;4.33;4.03;;;23.90;58.90;;;;;;5034566;28;20910;-72
2023/07/07 10:02:49;;;;;;;4.40;4.10;;;23.90;58.70;;;;;;5068036;28;20808;-72
2023/07/07 10:05:22;;;;;;;5.17;4.77;;;24.00;58.70;;;;;;5068155;28;20437;-72
2023/07/07 10:07:52;;;;;;;4.30;3.97;;;24.10;58.50;;;;;;5051371;28;20453;-72
2023/07/07 10:10:18;;;;;;;4.23;4.00;;;24.10;58.40;;;;;;5067568;28;20460;-72
2023/07/07 10:12:46;;;;;;;4.93;4.60;;;24.10;58.40;;;;;;5050922;28;20390;-72
2023/07/07 10:15:41;;;;;;;4.93;4.50;;;24.10;58.40;;;;;;5067887;28;20506;-72
2023/07/07 10:18:24;;;;;;;3.90;3.60;;;24.20;58.30;;;;;;5054949;28;20449;-72
2023/07/07 10:20:52;;;;;;;4.57;4.23;;;24.20;58.10;;;;;;5055098;28;20474;-72
2023/07/07 10:23:20;;;;;;;3.97;3.77;;;24.40;58.10;;;;;;5072720;28;20398;-72
2023/07/07 10:25:49;;;;;;;5.00;4.23;;;24.40;58.00;;;;;;5038217;28;20507;-72
2023/07/07 10:28:19;;;;;;;4.10;3.80;;;24.40;58.00;;;;;;5071227;28;20456;-72
2023/07/07 10:30:47;;;;;;;4.73;4.30;;;24.40;57.90;;;;;;5071116;28;20433;-73
2023/07/07 10:33:21;;;;;;;4.30;4.00;;;24.50;57.90;;;;;;5038760;28;20492;-72
2023/07/07 10:35:48;;;;;;;4.03;3.83;;;24.50;57.70;;;;;;5071358;28;20429;-72
2023/07/07 10:38:14;;;;;;;4.27;3.97;;;24.60;57.90;;;;;;5071190;28;20818;-72
2023/07/07 10:40:42;;;;;;;4.73;4.33;;;24.60;57.60;;;;;;5072091;28;20463;-72
2023/07/07 10:43:16;;;;;;;4.93;4.43;;;24.70;57.50;;;;;;5054519;28;20405;-73
2023/07/07 10:45:50;;;;;;;4.80;4.50;;;24.70;57.40;;;;;;5054784;28;20464;-72
2023/07/07 10:48:19;;;;;;;4.00;3.70;;;24.70;57.20;;;;;;5071044;28;20450;-73
2023/07/07 10:51:09;;;;;;;4.60;4.20;;;24.80;57.40;;;;;;5072337;28;20409;-72
2023/07/07 10:54:07;;;;;;;5.20;4.80;;;24.80;57.30;;;;;;5054479;28;20480;-72
2023/07/07 10:56:43;;;;;;;4.97;4.57;;;24.90;57.00;;;;;;5045611;28;20951;-73
2023/07/07 10:59:31;;;;;;;4.67;4.27;;;24.90;56.70;;;;;;5054139;28;20417;-73
2023/07/07 11:02:19;;;;;;;5.43;5.03;;;25.00;56.60;;;;;;5054416;28;20459;-72
2023/07/07 11:05:06;;;;;;;4.23;3.93;;;25.00;56.20;;;;;;5054120;28;20444;-73
2023/07/07 11:08:09;;;;;;;4.27;3.93;;;25.10;56.40;;;;;;5070919;28;20489;-71
2023/07/07 11:11:03;;;;;;;4.07;3.77;;;25.10;56.30;;;;;;5056097;28;20448;-71
2023/07/07 11:13:54;;;;;;;4.53;4.23;;;25.10;56.10;;;;;;5071903;28;20942;-72
2023/07/07 11:17:04;;;;;;;4.40;4.10;;;25.20;56.00;;;;;;5063281;28;20479;-72
2023/07/07 11:19:39;;;;;;;4.67;4.27;;;25.40;56.40;;;;;;5042289;28;20433;-72
2023/07/07 11:22:37;;;;;;;4.93;4.63;;;25.30;56.00;;;;;;5072150;28;20798;-72
2023/07/07 11:25:26;;;;;;;5.30;4.83;;;25.40;55.90;;;;;;5054177;28;20950;-71
2023/07/07 11:28:02;;;;;;;4.10;3.70;;;25.40;55.80;;;;;;5040592;28;20932;-72
2023/07/07 11:30:40;;;;;;;4.97;4.67;;;25.40;55.60;;;;;;5053899;28;20421;-72
2023/07/07 11:33:24;;;;;;;5.47;5.07;;;25.50;55.60;;;;;;5053995;28;20467;-70
2023/07/07 11:36:11;;;;;;;4.83;4.43;;;25.50;55.70;;;;;;5070082;28;20402;-72
2023/07/07 11:39:08;;;;;;;5.00;4.70;;;25.60;55.50;;;;;;5071907;28;20963;-71
2023/07/07 11:41:51;;;;;;;5.20;4.80;;;25.60;55.40;;;;;;5070799;28;20541;-72
2023/07/07 11:44:50;;;;;;;4.63;4.33;;;25.70;55.20;;;;;;5072153;28;20406;-73
2023/07/07 11:47:25;;;;;;;4.63;4.33;;;25.70;55.30;;;;;;5071880;28;20567;-72
2023/07/07 11:50:13;;;;;;;4.67;4.30;;;25.80;55.30;;;;;;5070576;28;20421;-74
2023/07/07 11:53:22;;;;;;;4.93;4.63;;;25.80;55.40;;;;;;5069752;28;20902;-72
2023/07/07 11:56:20;;;;;;;5.03;4.70;;;25.90;55.50;;;;;;5062032;28;20424;-71
2023/07/07 11:58:51;;;;;;;4.50;4.10;;;25.90;55.20;;;;;;5053369;28;20974;-73
2023/07/07 12:01:23;;;;;;;5.10;4.70;;;25.90;55.20;;;;;;5036873;28;20413;-72
2023/07/07 12:04:25;;;;;;;4.80;4.50;;;26.00;55.00;;;;;;5053348;28;20417;-76
2023/07/07 12:07:02;;;;;;;4.83;4.53;;;26.00;54.80;;;;;;5030709;28;20452;-72
2023/07/07 12:09:31;;;;;;;5.00;4.60;;;26.10;54.80;;;;;;5053126;28;20409;-72
2023/07/07 12:12:12;;;;;;;4.83;4.50;;;26.10;54.70;;;;;;5071033;28;20447;-71
2023/07/07 12:14:53;;;;;;;4.80;4.50;;;26.10;54.80;;;;;;5082174;22;20506;-81
2023/07/07 12:17:31;;;;;;;4.97;4.57;;;26.20;54.60;;;;;;5053219;28;20456;-81
2023/07/07 12:20:04;;;;;;;4.23;3.93;;;26.20;54.50;;;;;;5036095;28;20774;-81
2023/07/07 12:22:35;;;;;;;5.17;4.77;;;26.30;54.50;;;;;;5052763;28;20480;-80
2023/07/07 12:25:15;;;;;;;5.40;5.03;;;26.30;54.40;;;;;;5052101;28;20845;-79
2023/07/07 12:27:45;;;;;;;5.10;4.80;;;26.40;54.30;;;;;;5053641;28;20490;-80
2023/07/07 12:30:37;;;;;;;4.07;3.87;;;26.40;54.10;;;;;;5036196;28;20457;-80
2023/07/07 12:33:06;;;;;;;4.83;4.53;;;26.40;54.00;;;;;;5053228;28;20461;-80
2023/07/07 12:35:53;;;;;;;4.40;4.10;;;26.50;54.00;;;;;;5035993;28;20903;-80
2023/07/07 12:38:27;;;;;;;4.37;4.17;;;26.50;53.90;;;;;;5035495;28;20918;-80
2023/07/07 12:41:04;;;;;;;4.67;4.37;;;26.50;53.80;;;;;;5056230;28;20436;-80
2023/07/07 12:43:40;;;;;;;4.87;4.47;;;26.60;53.80;;;;;;5056659;28;20532;-80
2023/07/07 12:46:27;;;;;;;4.63;4.33;;;26.60;53.80;;;;;;5052341;28;20478;-79
2023/07/07 12:48:54;;;;;;;5.23;4.77;;;26.70;53.70;;;;;;5035519;28;20436;-80
2023/07/07 12:51:22;;;;;;;4.83;4.53;;;26.70;53.60;;;;;;5052713;28;20510;-79
2023/07/07 12:53:52;;;;;;;4.80;4.40;;;26.70;53.50;;;;;;5052681;28;20453;-80
2023/07/07 12:56:23;;;;;;;4.70;4.30;;;26.80;53.40;;;;;;5053127;28;20715;-80
2023/07/07 12:58:58;;;;;;;4.10;3.80;;;26.80;53.50;;;;;;5052023;28;20403;-80
2023/07/07 13:01:34;;;;;;;5.13;4.70;;;26.80;53.60;;;;;;5035498;28;20409;-79
2023/07/07 13:04:01;;;;;;;5.40;5.00;;;26.90;53.50;;;;;;5051560;28;20454;-79
2023/07/07 13:06:38;;;;;;;5.20;4.70;;;26.90;53.40;;;;;;5053125;28;20444;-79
2023/07/07 13:09:16;;;;;;;4.50;4.20;;;27.00;53.40;;;;;;5051852;28;20422;-79
2023/07/07 13:11:53;;;;;;;4.03;3.83;;;27.00;54.00;;;;;;5051468;28;20481;-79
2023/07/07 13:14:48;;;;;;;4.40;4.10;;;27.10;53.40;;;;;;5055103;28;20473;-79
2023/07/07 13:17:24;;;;;;;4.77;4.47;;;27.10;53.40;;;;;;5050720;28;20546;-80
2023/07/07 13:19:55;;;;;;;5.23;4.93;;;27.10;53.40;;;;;;5052236;28;20778;-79